createdAt,value
2023-05-06T00:00:26.711Z,0.00
2023-05-06T00:01:26.696Z,0.00
2023-05-06T00:02:26.755Z,0.00
2023-05-06T00:03:26.974Z,0.00
2023-05-06T00:04:26.781Z,0.00
2023-05-06T00:05:26.643Z,0.00
2023-05-06T00:06:26.648Z,0.00
2023-05-06T00:07:26.617Z,0.00
2023-05-06T00:08:26.621Z,0.00
2023-05-06T00:09:26.598Z,0.00
2023-05-06T00:10:26.580Z,0.00
2023-05-06T00:11:26.562Z,0.00
2023-05-06T00:12:26.563Z,0.00
2023-05-06T00:13:26.538Z,0.00
2023-05-06T00:14:26.540Z,0.00
2023-05-06T00:15:26.509Z,0.00
2023-05-06T00:16:26.539Z,0.00
2023-05-06T00:17:26.521Z,0.00
2023-05-06T00:18:26.478Z,0.00
2023-05-06T00:19:26.458Z,0.00
2023-05-06T00:20:26.473Z,0.00
2023-05-06T00:21:26.438Z,0.00
2023-05-06T00:22:26.427Z,0.00
2023-05-06T00:23:26.402Z,0.00
2023-05-06T00:24:26.410Z,0.00
2023-05-06T00:25:26.383Z,0.00
2023-05-06T00:26:26.377Z,0.00
2023-05-06T00:27:26.365Z,0.00
2023-05-06T00:28:26.346Z,0.00
2023-05-06T00:29:26.341Z,0.00
2023-05-06T00:30:26.326Z,0.00
2023-05-06T00:31:26.353Z,0.00
2023-05-06T00:32:26.383Z,0.00
2023-05-06T00:33:26.285Z,0.00
2023-05-06T00:34:26.276Z,0.00
2023-05-06T00:35:26.256Z,0.00
2023-05-06T00:36:26.350Z,0.00
2023-05-06T00:37:26.230Z,0.00
2023-05-06T00:38:26.219Z,0.00
2023-05-06T00:39:26.205Z,0.00
2023-05-06T00:40:26.193Z,0.00
2023-05-06T00:41:26.186Z,0.00
2023-05-06T00:42:26.167Z,0.00
2023-05-06T00:43:26.154Z,0.00
2023-05-06T00:44:26.142Z,0.00
2023-05-06T00:45:26.132Z,0.00
2023-05-06T00:46:26.171Z,0.00
2023-05-06T00:47:26.103Z,0.00
2023-05-06T00:48:26.092Z,0.00
2023-05-06T00:49:26.072Z,0.00
2023-05-06T00:50:26.069Z,0.00
2023-05-06T00:51:26.077Z,0.00
2023-05-06T00:52:26.209Z,0.00
2023-05-06T00:53:26.032Z,0.00
2023-05-06T00:54:26.033Z,0.00
2023-05-06T00:55:26.017Z,0.00
2023-05-06T00:56:26.007Z,0.00
2023-05-06T00:57:26.006Z,0.00
2023-05-06T00:58:25.972Z,0.00
2023-05-06T00:59:25.953Z,0.00
2023-05-06T01:00:25.942Z,0.00
2023-05-06T01:01:25.966Z,0.00
2023-05-06T01:02:33.126Z,0.00
2023-05-06T01:03:25.994Z,0.00
2023-05-06T01:04:25.885Z,0.00
2023-05-06T01:05:25.919Z,0.00
2023-05-06T01:06:25.861Z,0.00
2023-05-06T01:07:25.847Z,0.00
2023-05-06T01:08:25.983Z,0.00
2023-05-06T01:09:25.825Z,0.00
2023-05-06T01:10:25.808Z,0.00
2023-05-06T01:11:25.797Z,0.00
2023-05-06T01:12:25.784Z,0.00
2023-05-06T01:13:25.792Z,0.00
2023-05-06T01:14:25.778Z,0.00
2023-05-06T01:15:25.745Z,0.00
2023-05-06T01:16:25.870Z,0.00
2023-05-06T01:17:25.749Z,0.00
2023-05-06T01:18:25.704Z,0.00
2023-05-06T01:19:25.705Z,0.00
2023-05-06T01:21:25.667Z,0.00
2023-05-06T01:22:25.654Z,0.00
2023-05-06T01:23:25.640Z,0.00
2023-05-06T01:24:25.741Z,0.00
2023-05-06T01:25:25.631Z,0.00
2023-05-06T01:26:25.675Z,0.00
2023-05-06T01:27:25.600Z,0.00
2023-05-06T01:28:25.574Z,0.00
2023-05-06T01:29:25.566Z,0.00
2023-05-06T01:30:25.552Z,0.00
2023-05-06T01:31:25.574Z,0.00
2023-05-06T01:32:25.539Z,0.00
2023-05-06T01:33:25.518Z,0.00
2023-05-06T01:34:25.496Z,0.00
2023-05-06T01:35:25.489Z,0.00
2023-05-06T01:36:25.473Z,0.00
2023-05-06T01:37:25.459Z,0.00
2023-05-06T01:38:25.446Z,0.00
2023-05-06T01:39:25.447Z,0.00
2023-05-06T01:40:25.442Z,0.00
2023-05-06T01:41:25.409Z,0.00
2023-05-06T01:42:25.392Z,0.00
2023-05-06T01:43:25.385Z,0.00
2023-05-06T01:44:25.370Z,0.00
2023-05-06T01:45:25.355Z,0.00
2023-05-06T01:46:25.379Z,0.00
2023-05-06T01:47:25.360Z,0.00
2023-05-06T01:48:25.323Z,0.00
2023-05-06T01:49:25.333Z,0.00
2023-05-06T01:50:25.292Z,0.00
2023-05-06T01:51:25.305Z,0.00
2023-05-06T01:52:25.268Z,0.00
2023-05-06T01:53:25.262Z,0.00
2023-05-06T01:54:25.236Z,0.00
2023-05-06T01:55:25.227Z,0.00
2023-05-06T01:56:25.330Z,0.00
2023-05-06T01:57:25.200Z,0.00
2023-05-06T01:58:25.185Z,0.00
2023-05-06T01:59:25.180Z,0.00
2023-05-06T02:00:25.161Z,0.00
2023-05-06T02:01:25.244Z,0.00
2023-05-06T02:02:25.240Z,0.00
2023-05-06T02:03:25.169Z,0.00
2023-05-06T02:04:25.113Z,0.00
2023-05-06T02:05:25.099Z,0.00
2023-05-06T02:06:25.084Z,0.00
2023-05-06T02:07:25.069Z,0.00
2023-05-06T02:08:25.056Z,0.00
2023-05-06T02:09:25.045Z,0.00
2023-05-06T02:10:25.035Z,0.00
2023-05-06T02:11:25.042Z,0.00
2023-05-06T02:12:25.101Z,0.00
2023-05-06T02:13:24.997Z,0.00
2023-05-06T02:14:24.978Z,0.00
2023-05-06T02:15:24.968Z,0.00
2023-05-06T02:16:24.973Z,0.00
2023-05-06T02:17:25.002Z,0.00
2023-05-06T02:18:24.927Z,0.00
2023-05-06T02:19:24.925Z,0.00
2023-05-06T02:20:24.919Z,0.00
2023-05-06T02:21:24.896Z,0.00
2023-05-06T02:22:24.885Z,0.00
2023-05-06T02:23:24.866Z,0.00
2023-05-06T02:24:24.857Z,0.00
2023-05-06T02:25:24.841Z,0.00
2023-05-06T02:26:24.823Z,0.00
2023-05-06T02:27:24.812Z,0.00
2023-05-06T02:28:24.894Z,0.00
2023-05-06T02:29:24.787Z,0.00
2023-05-06T02:30:24.773Z,0.00
2023-05-06T02:31:24.796Z,0.00
2023-05-06T02:32:24.782Z,0.00
2023-05-06T02:33:24.734Z,0.00
2023-05-06T02:34:24.723Z,0.00
2023-05-06T02:35:24.715Z,0.00
2023-05-06T02:36:24.695Z,0.00
2023-05-06T02:37:24.700Z,0.00
2023-05-06T02:38:24.674Z,0.00
2023-05-06T02:39:24.657Z,0.00
2023-05-06T02:40:24.641Z,0.00
2023-05-06T02:41:24.633Z,0.00
2023-05-06T02:42:24.642Z,0.00
2023-05-06T02:43:24.609Z,0.00
2023-05-06T02:44:24.687Z,0.00
2023-05-06T02:45:24.590Z,0.00
2023-05-06T02:46:24.824Z,0.00
2023-05-06T02:47:24.621Z,0.00
2023-05-06T02:48:24.549Z,0.00
2023-05-06T02:49:24.531Z,0.00
2023-05-06T02:50:24.529Z,0.00
2023-05-06T02:51:24.506Z,0.00
2023-05-06T02:52:24.487Z,0.00
2023-05-06T02:53:24.497Z,0.00
2023-05-06T02:54:24.461Z,0.00
2023-05-06T02:55:24.478Z,0.00
2023-05-06T02:56:24.438Z,0.00
2023-05-06T02:57:24.423Z,0.00
2023-05-06T02:58:24.408Z,0.00
2023-05-06T02:59:24.394Z,0.00
2023-05-06T03:00:24.501Z,0.00
2023-05-06T03:01:24.415Z,0.00
2023-05-06T03:02:24.402Z,0.00
2023-05-06T03:03:24.357Z,0.00
2023-05-06T03:04:24.381Z,0.00
2023-05-06T03:05:24.323Z,0.00
2023-05-06T03:06:24.299Z,0.00
2023-05-06T03:07:24.290Z,0.00
2023-05-06T03:08:24.289Z,0.00
2023-05-06T03:09:24.263Z,0.00
2023-05-06T03:10:24.253Z,0.00
2023-05-06T03:11:24.239Z,0.00
2023-05-06T03:12:24.226Z,0.00
2023-05-06T03:13:24.226Z,0.00
2023-05-06T03:14:24.197Z,0.00
2023-05-06T03:15:24.191Z,0.00
2023-05-06T03:16:24.312Z,0.00
2023-05-06T03:17:24.170Z,0.00
2023-05-06T03:18:24.151Z,0.00
2023-05-06T03:19:24.130Z,0.00
2023-05-06T03:20:24.132Z,0.00
2023-05-06T03:21:24.137Z,4.00
2023-05-06T03:22:24.091Z,4.00
2023-05-06T03:23:24.084Z,4.00
2023-05-06T03:24:24.065Z,0.00
2023-05-06T03:25:24.054Z,4.00
2023-05-06T03:26:24.040Z,4.00
2023-05-06T03:27:24.031Z,8.00
2023-05-06T03:28:24.014Z,4.00
2023-05-06T03:29:23.999Z,8.00
2023-05-06T03:30:23.985Z,8.00
2023-05-06T03:31:23.995Z,12.00
2023-05-06T03:32:24.246Z,12.00
2023-05-06T03:33:23.951Z,12.00
2023-05-06T03:34:23.931Z,16.00
2023-05-06T03:35:23.935Z,16.00
2023-05-06T03:36:23.914Z,20.00
2023-05-06T03:37:23.897Z,24.00
2023-05-06T03:38:23.883Z,28.00
2023-05-06T03:39:23.863Z,32.00
2023-05-06T03:40:23.859Z,36.00
2023-05-06T03:41:23.841Z,44.00
2023-05-06T03:42:23.827Z,44.00
2023-05-06T03:43:23.825Z,56.00
2023-05-06T03:44:23.800Z,60.00
2023-05-06T03:45:23.785Z,72.00
2023-05-06T03:46:23.800Z,80.00
2023-05-06T03:47:23.776Z,92.00
2023-05-06T03:48:23.772Z,104.00
2023-05-06T03:49:23.735Z,116.00
2023-05-06T03:50:23.722Z,136.00
2023-05-06T03:51:23.728Z,148.00
2023-05-06T03:52:23.698Z,168.00
2023-05-06T03:53:23.683Z,184.00
2023-05-06T03:54:23.673Z,204.00
2023-05-06T03:55:23.674Z,232.00
2023-05-06T03:56:23.647Z,252.00
2023-05-06T03:57:23.635Z,276.00
2023-05-06T03:58:23.612Z,304.00
2023-05-06T03:59:23.608Z,332.00
2023-05-06T04:00:23.603Z,364.00
2023-05-06T04:01:23.592Z,400.00
2023-05-06T04:02:23.673Z,440.00
2023-05-06T04:03:23.662Z,480.00
2023-05-06T04:04:23.634Z,520.00
2023-05-06T04:05:23.526Z,560.00
2023-05-06T04:06:23.512Z,604.00
2023-05-06T04:07:23.510Z,652.00
2023-05-06T04:08:23.508Z,704.00
2023-05-06T04:09:23.471Z,752.00
2023-05-06T04:10:23.459Z,800.00
2023-05-06T04:11:23.444Z,848.00
2023-05-06T04:12:23.435Z,900.00
2023-05-06T04:13:23.419Z,952.00
2023-05-06T04:14:23.415Z,1004.00
2023-05-06T04:15:23.391Z,1056.00
2023-05-06T04:16:23.425Z,1104.00
2023-05-06T04:17:23.370Z,1156.00
2023-05-06T04:18:23.351Z,1200.00
2023-05-06T04:19:23.340Z,1252.00
2023-05-06T04:20:23.432Z,1296.00
2023-05-06T04:21:23.313Z,1340.00
2023-05-06T04:22:23.299Z,1388.00
2023-05-06T04:23:23.293Z,1440.00
2023-05-06T04:24:23.268Z,1492.00
2023-05-06T04:25:23.265Z,1544.00
2023-05-06T04:26:23.247Z,1588.00
2023-05-06T04:27:23.237Z,1624.00
2023-05-06T04:28:23.224Z,1660.00
2023-05-06T04:29:23.212Z,1688.00
2023-05-06T04:30:23.200Z,1736.00
2023-05-06T04:31:23.203Z,1812.00
2023-05-06T04:32:23.173Z,1868.00
2023-05-06T04:33:23.166Z,1908.00
2023-05-06T04:34:23.151Z,1944.00
2023-05-06T04:35:23.138Z,1956.00
2023-05-06T04:36:23.147Z,1964.00
2023-05-06T04:37:23.108Z,2016.00
2023-05-06T04:38:23.099Z,2060.00
2023-05-06T04:39:23.085Z,2100.00
2023-05-06T04:40:23.072Z,2160.00
2023-05-06T04:41:23.062Z,2216.00
2023-05-06T04:42:23.044Z,2296.00
2023-05-06T04:43:23.033Z,2364.00
2023-05-06T04:44:23.023Z,2388.00
2023-05-06T04:45:23.009Z,2464.00
2023-05-06T04:46:23.097Z,2560.00
2023-05-06T04:47:23.021Z,2560.00
2023-05-06T04:48:22.968Z,2564.00
2023-05-06T04:49:22.957Z,2768.00
2023-05-06T04:50:22.953Z,2892.00
2023-05-06T04:51:22.952Z,3004.00
2023-05-06T04:52:22.943Z,3228.00
2023-05-06T04:53:22.907Z,3440.00
2023-05-06T04:54:22.890Z,3752.00
2023-05-06T04:55:22.891Z,4240.00
2023-05-06T04:56:22.867Z,4324.00
2023-05-06T04:57:22.861Z,4260.00
2023-05-06T04:58:22.839Z,4252.00
2023-05-06T04:59:22.845Z,4132.00
2023-05-06T05:00:22.811Z,3880.00
2023-05-06T05:01:22.835Z,3756.00
2023-05-06T05:02:22.868Z,3932.00
2023-05-06T05:03:22.855Z,3920.00
2023-05-06T05:04:22.761Z,3996.00
2023-05-06T05:05:22.750Z,4228.00
2023-05-06T05:06:22.736Z,4216.00
2023-05-06T05:07:22.726Z,4144.00
2023-05-06T05:08:22.748Z,4248.00
2023-05-06T05:09:22.708Z,4324.00
2023-05-06T05:10:22.685Z,4456.00
2023-05-06T05:11:22.679Z,4592.00
2023-05-06T05:12:22.655Z,4552.00
2023-05-06T05:13:22.693Z,4476.00
2023-05-06T05:14:22.664Z,4816.00
2023-05-06T05:15:22.622Z,4960.00
2023-05-06T05:16:22.709Z,4944.00
2023-05-06T05:17:22.635Z,5156.00
2023-05-06T05:18:22.585Z,4836.00
2023-05-06T05:19:22.568Z,4436.00
2023-05-06T05:20:22.554Z,4468.00
2023-05-06T05:22:22.538Z,6532.00
2023-05-06T05:23:22.518Z,6888.00
2023-05-06T05:24:22.604Z,7304.00
2023-05-06T05:25:22.487Z,7856.00
2023-05-06T05:26:22.488Z,7188.00
2023-05-06T05:27:22.473Z,7108.00
2023-05-06T05:28:22.454Z,6476.00
2023-05-06T05:29:22.448Z,5708.00
2023-05-06T05:30:22.437Z,5172.00
2023-05-06T05:31:22.439Z,5232.00
2023-05-06T05:32:22.453Z,5068.00
2023-05-06T05:33:22.416Z,5148.00
2023-05-06T05:34:22.375Z,5816.00
2023-05-06T05:35:22.371Z,8488.00
2023-05-06T05:36:22.347Z,8872.00
2023-05-06T05:37:22.340Z,8756.00
2023-05-06T05:38:22.319Z,10848.00
2023-05-06T05:39:22.313Z,11076.00
2023-05-06T05:40:22.321Z,10288.00
2023-05-06T05:41:22.281Z,9912.00
2023-05-06T05:42:22.271Z,9976.00
2023-05-06T05:43:22.254Z,10176.00
2023-05-06T05:44:22.244Z,10364.00
2023-05-06T05:45:22.228Z,11764.00
2023-05-06T05:46:22.239Z,11980.00
2023-05-06T05:47:22.223Z,12200.00
2023-05-06T05:48:22.193Z,10428.00
2023-05-06T05:49:22.182Z,11288.00
2023-05-06T05:50:22.168Z,12936.00
2023-05-06T05:51:22.152Z,12720.00
2023-05-06T05:52:22.151Z,12844.00
2023-05-06T05:53:22.125Z,12596.00
2023-05-06T05:54:22.117Z,12880.00
2023-05-06T05:55:22.102Z,13608.00
2023-05-06T05:56:22.182Z,17760.00
2023-05-06T05:57:22.072Z,11744.00
2023-05-06T05:58:22.062Z,9736.00
2023-05-06T05:59:22.047Z,11424.00
2023-05-06T06:00:22.034Z,9484.00
2023-05-06T06:01:22.032Z,14768.00
2023-05-06T06:02:22.103Z,9668.00
2023-05-06T06:03:22.106Z,10624.00
2023-05-06T06:04:22.007Z,8964.00
2023-05-06T06:05:21.969Z,9036.00
2023-05-06T06:06:21.966Z,9044.00
2023-05-06T06:07:21.940Z,9564.00
2023-05-06T06:08:21.930Z,9428.00
2023-05-06T06:09:21.915Z,9060.00
2023-05-06T06:10:21.908Z,8936.00
2023-05-06T06:12:21.973Z,9096.00
2023-05-06T06:13:22.036Z,9104.00
2023-05-06T06:14:21.860Z,8444.00
2023-05-06T06:15:21.840Z,8760.00
2023-05-06T06:16:21.890Z,9292.00
2023-05-06T06:17:21.813Z,9960.00
2023-05-06T06:18:21.801Z,10456.00
2023-05-06T06:19:21.786Z,10824.00
2023-05-06T06:20:21.777Z,9948.00
2023-05-06T06:21:21.760Z,10736.00
2023-05-06T06:22:21.750Z,10980.00
2023-05-06T06:23:21.750Z,11800.00
2023-05-06T06:24:21.728Z,13756.00
2023-05-06T06:25:21.739Z,17760.00
2023-05-06T06:26:21.697Z,17536.00
2023-05-06T06:27:21.688Z,16704.00
2023-05-06T06:28:21.844Z,16608.00
2023-05-06T06:29:21.663Z,15612.00
2023-05-06T06:30:21.649Z,14848.00
2023-05-06T06:31:21.673Z,14004.00
2023-05-06T06:32:21.618Z,13576.00
2023-05-06T06:33:21.613Z,13192.00
2023-05-06T06:34:21.598Z,12860.00
2023-05-06T06:35:21.586Z,12152.00
2023-05-06T06:36:21.571Z,11124.00
2023-05-06T06:37:21.567Z,9864.00
2023-05-06T06:38:21.549Z,9096.00
2023-05-06T06:39:21.531Z,8672.00
2023-05-06T06:40:21.520Z,8500.00
2023-05-06T06:41:21.507Z,8572.00
2023-05-06T06:42:21.496Z,8740.00
2023-05-06T06:43:21.478Z,9068.00
2023-05-06T06:44:21.604Z,9340.00
2023-05-06T06:45:21.452Z,9408.00
2023-05-06T06:46:21.619Z,9544.00
2023-05-06T06:47:21.430Z,9636.00
2023-05-06T06:48:21.421Z,9812.00
2023-05-06T06:49:21.406Z,10892.00
2023-05-06T06:50:21.393Z,10328.00
2023-05-06T06:51:21.378Z,10604.00
2023-05-06T06:52:21.366Z,11028.00
2023-05-06T06:53:21.370Z,11792.00
2023-05-06T06:54:21.343Z,13256.00
2023-05-06T06:55:21.328Z,16704.00
2023-05-06T06:56:21.314Z,18624.00
2023-05-06T06:57:21.302Z,17440.00
2023-05-06T06:58:21.296Z,16512.00
2023-05-06T06:59:21.277Z,14728.00
2023-05-06T07:00:21.388Z,15536.00
2023-05-06T07:01:21.276Z,14472.00
2023-05-06T07:02:21.247Z,13644.00
2023-05-06T07:03:21.224Z,12844.00
2023-05-06T07:04:21.271Z,13124.00
2023-05-06T07:05:21.204Z,13624.00
2023-05-06T07:06:21.209Z,14504.00
2023-05-06T07:07:21.177Z,20960.00
2023-05-06T07:08:21.165Z,19872.00
2023-05-06T07:09:21.148Z,27136.00
2023-05-06T07:10:21.140Z,22048.00
2023-05-06T07:11:21.122Z,21952.00
2023-05-06T07:12:21.107Z,22880.00
2023-05-06T07:13:21.166Z,27488.00
2023-05-06T07:14:21.085Z,26176.00
2023-05-06T07:15:21.073Z,33376.00
2023-05-06T07:16:21.111Z,26880.00
2023-05-06T07:17:21.111Z,23552.00
2023-05-06T07:18:21.102Z,22272.00
2023-05-06T07:19:21.020Z,20800.00
2023-05-06T07:20:21.009Z,20160.00
2023-05-06T07:21:20.995Z,18880.00
2023-05-06T07:22:21.008Z,18240.00
2023-05-06T07:23:20.975Z,18240.00
2023-05-06T07:24:20.959Z,17888.00
2023-05-06T07:25:20.954Z,20288.00
2023-05-06T07:26:20.935Z,17728.00
2023-05-06T07:27:20.922Z,18112.00
2023-05-06T07:28:20.932Z,18336.00
2023-05-06T07:29:20.971Z,19040.00
2023-05-06T07:30:23.060Z,19200.00
2023-05-06T07:31:20.943Z,19296.00
2023-05-06T07:32:20.889Z,19104.00
2023-05-06T07:33:20.851Z,19616.00
2023-05-06T07:34:20.840Z,18752.00
2023-05-06T07:35:20.828Z,18656.00
2023-05-06T07:36:20.812Z,18688.00
2023-05-06T07:37:20.814Z,18624.00
2023-05-06T07:38:20.783Z,18880.00
2023-05-06T07:39:20.788Z,18368.00
2023-05-06T07:40:20.764Z,18528.00
2023-05-06T07:41:20.751Z,18688.00
2023-05-06T07:42:20.738Z,19136.00
2023-05-06T07:43:20.724Z,19712.00
2023-05-06T07:44:20.714Z,20608.00
2023-05-06T07:45:20.705Z,21600.00
2023-05-06T07:46:20.742Z,22464.00
2023-05-06T07:47:20.738Z,21728.00
2023-05-06T07:48:20.842Z,21120.00
2023-05-06T07:49:20.654Z,21056.00
2023-05-06T07:50:20.643Z,20480.00
2023-05-06T07:51:20.622Z,19680.00
2023-05-06T07:52:20.612Z,18880.00
2023-05-06T07:53:20.599Z,18144.00
2023-05-06T07:54:20.587Z,19648.00
2023-05-06T07:55:20.618Z,18560.00
2023-05-06T07:56:20.561Z,18528.00
2023-05-06T07:57:20.545Z,19648.00
2023-05-06T07:58:20.539Z,21824.00
2023-05-06T07:59:20.550Z,21568.00
2023-05-06T08:00:20.511Z,21920.00
2023-05-06T08:01:20.491Z,22176.00
2023-05-06T08:02:20.540Z,23008.00
2023-05-06T08:03:20.589Z,21792.00
2023-05-06T08:04:20.654Z,24928.00
2023-05-06T08:05:20.443Z,23328.00
2023-05-06T08:06:20.429Z,25568.00
2023-05-06T08:07:20.413Z,52448.00
2023-05-06T08:08:20.400Z,41024.00
2023-05-06T08:09:22.998Z,54400.00
2023-05-06T08:10:20.373Z,36480.00
2023-05-06T08:11:20.360Z,34624.00
2023-05-06T08:12:20.350Z,57632.00
2023-05-06T08:13:20.374Z,66048.00
2023-05-06T08:14:20.326Z,63072.00
2023-05-06T08:15:20.315Z,60224.00
2023-05-06T08:16:20.685Z,57376.00
2023-05-06T08:17:20.299Z,59936.00
2023-05-06T08:18:23.022Z,63776.00
2023-05-06T08:19:20.266Z,65408.00
2023-05-06T08:20:20.368Z,62656.00
2023-05-06T08:21:20.263Z,61376.00
2023-05-06T08:22:20.231Z,59712.00
2023-05-06T08:23:20.229Z,58848.00
2023-05-06T08:24:20.232Z,58624.00
2023-05-06T08:25:20.214Z,59552.00
2023-05-06T08:26:20.183Z,58592.00
2023-05-06T08:27:20.165Z,59744.00
2023-05-06T08:28:20.156Z,56544.00
2023-05-06T08:29:20.144Z,53920.00
2023-05-06T08:30:20.134Z,55424.00
2023-05-06T08:31:20.134Z,58976.00
2023-05-06T08:32:20.107Z,59712.00
2023-05-06T08:33:20.090Z,58048.00
2023-05-06T08:34:20.084Z,59552.00
2023-05-06T08:35:20.079Z,59232.00
2023-05-06T08:36:20.160Z,59616.00
2023-05-06T08:37:20.046Z,57472.00
2023-05-06T08:38:20.035Z,51872.00
2023-05-06T08:39:20.025Z,54688.00
2023-05-06T08:40:20.024Z,57600.00
2023-05-06T08:41:20.018Z,57536.00
2023-05-06T08:42:19.999Z,58368.00
2023-05-06T08:43:19.976Z,57888.00
2023-05-06T08:44:19.974Z,57792.00
2023-05-06T08:45:19.972Z,60128.00
2023-05-06T08:46:20.096Z,61472.00
2023-05-06T08:47:19.932Z,65120.00
2023-05-06T08:48:19.929Z,61408.00
2023-05-06T08:49:19.918Z,58752.00
2023-05-06T08:50:19.909Z,58560.00
2023-05-06T08:51:19.888Z,61696.00
2023-05-06T08:52:19.905Z,61184.00
2023-05-06T08:53:19.893Z,60160.00
2023-05-06T08:54:19.856Z,60032.00
2023-05-06T08:55:19.839Z,58944.00
2023-05-06T08:56:19.833Z,61120.00
2023-05-06T08:57:19.829Z,58624.00
2023-05-06T08:58:19.813Z,59840.00
2023-05-06T08:59:19.794Z,62848.00
2023-05-06T09:00:19.828Z,59776.00
2023-05-06T09:01:19.818Z,60192.00
2023-05-06T09:02:19.807Z,62496.00
2023-05-06T09:03:19.865Z,68384.00
2023-05-06T09:04:19.731Z,61632.00
2023-05-06T09:05:19.720Z,60896.00
2023-05-06T09:06:19.721Z,67424.00
2023-05-06T09:07:19.694Z,66112.00
2023-05-06T09:08:19.816Z,59776.00
2023-05-06T09:09:19.677Z,57760.00
2023-05-06T09:10:19.725Z,60384.00
2023-05-06T09:11:19.650Z,60064.00
2023-05-06T09:12:19.638Z,64128.00
2023-05-06T09:13:19.816Z,69664.00
2023-05-06T09:14:19.621Z,71904.00
2023-05-06T09:15:19.605Z,66848.00
2023-05-06T09:16:19.662Z,65824.00
2023-05-06T09:17:19.585Z,67296.00
2023-05-06T09:18:19.575Z,73376.00
2023-05-06T09:19:19.565Z,74016.00
2023-05-06T09:20:19.584Z,73632.00
2023-05-06T09:21:19.543Z,75136.00
2023-05-06T09:23:19.514Z,57664.00
2023-05-06T09:24:19.526Z,42528.00
2023-05-06T09:25:19.485Z,42304.00
2023-05-06T09:26:19.481Z,61312.00
2023-05-06T09:27:19.479Z,57888.00
2023-05-06T09:28:19.467Z,36768.00
2023-05-06T09:29:19.441Z,76928.00
2023-05-06T09:30:19.426Z,56096.00
2023-05-06T09:31:19.470Z,57632.00
2023-05-06T09:32:19.410Z,70912.00
2023-05-06T09:33:19.394Z,68192.00
2023-05-06T09:34:19.379Z,50272.00
2023-05-06T09:35:19.366Z,44736.00
2023-05-06T09:36:19.372Z,48672.00
2023-05-06T09:37:19.348Z,66144.00
2023-05-06T09:38:19.330Z,62656.00
2023-05-06T09:39:19.324Z,47584.00
2023-05-06T09:40:19.368Z,41504.00
2023-05-06T09:41:19.296Z,51584.00
2023-05-06T09:42:19.286Z,49984.00
2023-05-06T09:43:19.280Z,39840.00
2023-05-06T09:44:19.265Z,40128.00
2023-05-06T09:45:19.249Z,48256.00
2023-05-06T09:46:19.314Z,49888.00
2023-05-06T09:47:19.232Z,62528.00
2023-05-06T09:48:19.213Z,66624.00
2023-05-06T09:49:19.207Z,65024.00
2023-05-06T09:50:19.201Z,66048.00
2023-05-06T09:51:19.178Z,56704.00
2023-05-06T09:52:19.169Z,69888.00
2023-05-06T09:53:19.157Z,71488.00
2023-05-06T09:54:19.146Z,62784.00
2023-05-06T09:55:19.139Z,54784.00
2023-05-06T09:56:19.160Z,37152.00
2023-05-06T09:57:19.114Z,54816.00
2023-05-06T09:58:19.106Z,38368.00
2023-05-06T09:59:19.093Z,29568.00
2023-05-06T10:00:19.081Z,41408.00
2023-05-06T10:01:32.584Z,30304.00
2023-05-06T10:02:21.157Z,27328.00
2023-05-06T10:03:19.139Z,27360.00
2023-05-06T10:04:19.221Z,27456.00
2023-05-06T10:05:19.149Z,27744.00
2023-05-06T10:06:19.008Z,28256.00
2023-05-06T10:07:19.002Z,28960.00
2023-05-06T10:08:18.992Z,29920.00
2023-05-06T10:09:18.981Z,31296.00
2023-05-06T10:10:18.961Z,34496.00
2023-05-06T10:11:18.953Z,39072.00
2023-05-06T10:12:18.960Z,38784.00
2023-05-06T10:13:19.000Z,49952.00
2023-05-06T10:14:18.964Z,47424.00
2023-05-06T10:15:18.918Z,77280.00
2023-05-06T10:16:18.909Z,62112.00
2023-05-06T10:17:18.891Z,59360.00
2023-05-06T10:18:18.870Z,45056.00
2023-05-06T10:19:18.868Z,43584.00
2023-05-06T10:20:18.844Z,35840.00
2023-05-06T10:21:18.834Z,36512.00
2023-05-06T10:22:18.822Z,34848.00
2023-05-06T10:23:18.806Z,42848.00
2023-05-06T10:24:18.794Z,40064.00
2023-05-06T10:25:18.785Z,31264.00
2023-05-06T10:26:18.770Z,34592.00
2023-05-06T10:27:18.758Z,62304.00
2023-05-06T10:28:28.503Z,67104.00
2023-05-06T10:29:20.733Z,22496.00
2023-05-06T10:30:18.717Z,40832.00
2023-05-06T10:31:18.717Z,20832.00
2023-05-06T10:32:18.700Z,20832.00
2023-05-06T10:33:18.684Z,20640.00
2023-05-06T10:34:18.668Z,21120.00
2023-05-06T10:35:18.655Z,22336.00
2023-05-06T10:36:18.649Z,23584.00
2023-05-06T10:37:18.645Z,25088.00
2023-05-06T10:38:18.619Z,25504.00
2023-05-06T10:39:18.604Z,32128.00
2023-05-06T10:40:18.598Z,29536.00
2023-05-06T10:41:18.731Z,28000.00
2023-05-06T10:42:18.564Z,57664.00
2023-05-06T10:43:18.551Z,39776.00
2023-05-06T10:44:18.709Z,36384.00
2023-05-06T10:45:18.534Z,60416.00
2023-05-06T10:46:18.534Z,69760.00
2023-05-06T10:47:18.510Z,67072.00
2023-05-06T10:48:18.490Z,64992.00
2023-05-06T10:49:18.484Z,64128.00
2023-05-06T10:50:18.469Z,59680.00
2023-05-06T10:51:18.467Z,59648.00
2023-05-06T10:52:18.439Z,61120.00
2023-05-06T10:53:18.429Z,63840.00
2023-05-06T10:54:18.417Z,24832.00
2023-05-06T10:55:18.410Z,18592.00
2023-05-06T10:56:18.388Z,19520.00
2023-05-06T10:57:18.387Z,19328.00
2023-05-06T10:58:18.368Z,19424.00
2023-05-06T10:59:18.356Z,19584.00
2023-05-06T11:00:18.528Z,19328.00
2023-05-06T11:01:18.365Z,19200.00
2023-05-06T11:02:18.371Z,20448.00
2023-05-06T11:03:18.369Z,28192.00
2023-05-06T11:04:18.300Z,31424.00
2023-05-06T11:05:18.287Z,31104.00
2023-05-06T11:06:18.269Z,40128.00
2023-05-06T11:07:18.257Z,68768.00
2023-05-06T11:08:18.244Z,68448.00
2023-05-06T11:09:18.234Z,68672.00
2023-05-06T11:10:18.218Z,66912.00
2023-05-06T11:11:18.213Z,66112.00
2023-05-06T11:12:18.202Z,67904.00
2023-05-06T11:13:18.240Z,65440.00
2023-05-06T11:14:18.177Z,62688.00
2023-05-06T11:15:18.162Z,60160.00
2023-05-06T11:16:18.295Z,62080.00
2023-05-06T11:17:18.147Z,63360.00
2023-05-06T11:18:18.129Z,62656.00
2023-05-06T11:19:18.117Z,61024.00
2023-05-06T11:20:18.104Z,39616.00
2023-05-06T11:21:18.094Z,54912.00
2023-05-06T11:22:18.121Z,64704.00
2023-05-06T11:23:18.068Z,64768.00
2023-05-06T11:24:18.063Z,66208.00
2023-05-06T11:25:18.048Z,65888.00
2023-05-06T11:26:18.035Z,64192.00
2023-05-06T11:27:18.023Z,61888.00
2023-05-06T11:28:18.013Z,58976.00
2023-05-06T11:29:17.992Z,57568.00
2023-05-06T11:30:17.984Z,27296.00
2023-05-06T11:31:18.002Z,57632.00
2023-05-06T11:32:18.085Z,56128.00
2023-05-06T11:33:17.954Z,53216.00
2023-05-06T11:34:17.937Z,52608.00
2023-05-06T11:35:17.927Z,50976.00
2023-05-06T11:36:17.937Z,52768.00
2023-05-06T11:37:17.896Z,46432.00
2023-05-06T11:38:17.887Z,52864.00
2023-05-06T11:39:17.877Z,50432.00
2023-05-06T11:40:17.889Z,52160.00
2023-05-06T11:41:17.848Z,53600.00
2023-05-06T11:42:17.839Z,55040.00
2023-05-06T11:43:17.829Z,55040.00
2023-05-06T11:44:17.813Z,39488.00
2023-05-06T11:45:17.805Z,56640.00
2023-05-06T11:46:17.816Z,55936.00
2023-05-06T11:47:17.788Z,56000.00
2023-05-06T11:48:17.804Z,53856.00
2023-05-06T11:49:17.762Z,51328.00
2023-05-06T11:50:17.749Z,52352.00
2023-05-06T11:51:17.733Z,53984.00
2023-05-06T11:52:17.723Z,55328.00
2023-05-06T11:53:17.710Z,57248.00
2023-05-06T11:54:17.705Z,56672.00
2023-05-06T11:55:17.684Z,55904.00
2023-05-06T11:56:17.691Z,54304.00
2023-05-06T11:57:17.660Z,38784.00
2023-05-06T11:58:17.650Z,21088.00
2023-05-06T11:59:17.636Z,22240.00
2023-05-06T12:00:17.632Z,53536.00
2023-05-06T12:01:17.615Z,32768.00
2023-05-06T12:02:17.698Z,58912.00
2023-05-06T12:03:17.696Z,57472.00
2023-05-06T12:04:17.734Z,53600.00
2023-05-06T12:05:17.567Z,53792.00
2023-05-06T12:06:17.553Z,51968.00
2023-05-06T12:07:17.619Z,53568.00
2023-05-06T12:08:26.693Z,54272.00
2023-05-06T12:09:17.522Z,53728.00
2023-05-06T12:10:17.510Z,53312.00
2023-05-06T12:11:17.500Z,53344.00
2023-05-06T12:12:17.487Z,54112.00
2023-05-06T12:13:17.530Z,54624.00
2023-05-06T12:14:17.460Z,54720.00
2023-05-06T12:15:17.449Z,53408.00
2023-05-06T12:16:17.442Z,52224.00
2023-05-06T12:17:17.424Z,51968.00
2023-05-06T12:18:17.413Z,49600.00
2023-05-06T12:19:17.407Z,51584.00